createdAt,value
2022-08-19T00:01:37.976Z,57.23
2022-08-19T00:04:03.109Z,56.87
2022-08-19T00:06:26.407Z,56.57
2022-08-19T00:08:49.714Z,56.56
2022-08-19T00:11:18.535Z,56.42
2022-08-19T00:13:51.011Z,56.20
2022-08-19T00:16:14.330Z,56.14
2022-08-19T00:18:38.953Z,56.04
2022-08-19T00:21:02.257Z,55.72
2022-08-19T00:23:25.538Z,55.65
2022-08-19T00:25:48.957Z,55.35
2022-08-19T00:28:12.273Z,55.13
2022-08-19T00:30:35.594Z,55.41
2022-08-19T00:32:58.869Z,55.43
2022-08-19T00:35:23.618Z,55.38
2022-08-19T00:37:46.882Z,55.36
2022-08-19T00:40:10.662Z,55.59
2022-08-19T00:42:34.121Z,55.37
2022-08-19T00:44:57.328Z,55.50
2022-08-19T00:47:20.909Z,55.88
2022-08-19T00:49:46.674Z,55.79
2022-08-19T00:52:13.440Z,55.65
2022-08-19T00:54:37.638Z,55.52
2022-08-19T00:57:01.369Z,55.83
2022-08-19T01:00:02.014Z,55.63
2022-08-19T01:02:07.889Z,55.76
2022-08-19T01:04:31.135Z,55.60
2022-08-19T01:06:54.509Z,55.35
2022-08-19T01:09:19.130Z,55.17
2022-08-19T01:11:43.365Z,54.77
2022-08-19T01:14:06.650Z,55.13
2022-08-19T01:16:30.039Z,54.86
2022-08-19T01:18:53.373Z,54.96
2022-08-19T01:21:20.016Z,55.13
2022-08-19T01:23:44.613Z,55.16
2022-08-19T01:26:07.987Z,54.76
2022-08-19T01:28:33.858Z,54.92
2022-08-19T01:31:07.064Z,55.04
2022-08-19T01:33:32.033Z,54.94
2022-08-19T01:35:55.311Z,55.04
2022-08-19T01:38:22.442Z,55.06
2022-08-19T01:40:47.351Z,54.86
2022-08-19T01:43:10.613Z,55.09
2022-08-19T01:45:34.833Z,55.61
2022-08-19T01:48:01.659Z,55.39
2022-08-19T01:50:25.869Z,55.35
2022-08-19T01:52:49.300Z,55.56
2022-08-19T01:55:25.941Z,55.85
2022-08-19T01:57:51.382Z,56.47
2022-08-19T02:00:16.425Z,56.09
2022-08-19T02:02:40.383Z,55.96
2022-08-19T02:05:08.134Z,56.25
2022-08-19T02:07:34.630Z,56.38
2022-08-19T02:10:03.090Z,56.11
2022-08-19T02:12:32.158Z,56.53
2022-08-19T02:14:57.500Z,55.70
2022-08-19T02:17:21.745Z,55.97
2022-08-19T02:19:44.987Z,55.18
2022-08-19T02:22:08.361Z,55.34
2022-08-19T02:24:31.649Z,54.81
2022-08-19T02:26:54.934Z,54.86
2022-08-19T02:29:18.228Z,54.88
2022-08-19T02:31:42.882Z,54.53
2022-08-19T02:34:06.183Z,54.31
2022-08-19T02:36:29.474Z,54.51
2022-08-19T02:38:54.262Z,54.23
2022-08-19T02:41:19.788Z,54.49
2022-08-19T02:43:44.432Z,54.21
2022-08-19T02:46:28.218Z,54.92
2022-08-19T02:48:54.076Z,54.80
2022-08-19T02:51:20.729Z,55.53
2022-08-19T02:53:44.439Z,55.20
2022-08-19T02:56:08.742Z,55.36
2022-08-19T02:58:31.837Z,55.08
2022-08-19T03:00:56.212Z,55.04
2022-08-19T03:03:19.744Z,54.78
2022-08-19T03:05:47.017Z,54.98
2022-08-19T03:08:19.267Z,55.32
2022-08-19T03:10:46.362Z,56.00
2022-08-19T03:13:09.879Z,55.27
2022-08-19T03:15:33.172Z,55.87
2022-08-19T03:17:56.466Z,56.46
2022-08-19T03:20:20.850Z,56.10
2022-08-19T03:22:45.665Z,55.98
2022-08-19T03:25:09.614Z,56.57
2022-08-19T03:27:33.018Z,56.49
2022-08-19T03:29:58.043Z,56.49
2022-08-19T03:32:32.769Z,56.01
2022-08-19T03:34:56.649Z,56.70
2022-08-19T03:37:19.864Z,56.51
2022-08-19T03:39:44.543Z,56.70
2022-08-19T03:42:38.764Z,56.88
2022-08-19T03:44:51.611Z,57.00
2022-08-19T03:47:17.666Z,56.59
2022-08-19T03:49:40.981Z,56.41
2022-08-19T03:52:08.247Z,56.54
2022-08-19T03:54:31.609Z,56.82
2022-08-19T03:56:56.798Z,56.66
2022-08-19T03:59:21.343Z,56.60
2022-08-19T04:01:44.834Z,56.50
2022-08-19T04:04:08.153Z,56.13
2022-08-19T04:06:33.405Z,56.34
2022-08-19T04:08:56.928Z,56.17
2022-08-19T04:11:22.509Z,55.84
2022-08-19T04:14:07.134Z,55.94
2022-08-19T04:16:31.702Z,55.25
2022-08-19T04:18:58.633Z,54.88
2022-08-19T04:21:23.406Z,54.99
2022-08-19T04:23:46.732Z,55.25
2022-08-19T04:26:14.222Z,55.37
2022-08-19T04:28:37.803Z,55.32
2022-08-19T04:31:02.522Z,55.00
2022-08-19T04:33:28.718Z,54.82
2022-08-19T04:35:53.046Z,54.71
2022-08-19T04:38:16.491Z,54.68
2022-08-19T04:40:59.616Z,54.64
2022-08-19T04:43:22.937Z,54.62
2022-08-19T04:45:48.428Z,55.55
2022-08-19T04:48:26.156Z,55.51
2022-08-19T04:50:51.861Z,55.37
2022-08-19T04:53:15.142Z,55.06
2022-08-19T04:55:41.679Z,54.92
2022-08-19T04:58:04.977Z,54.96
2022-08-19T05:00:28.289Z,55.25
2022-08-19T05:02:51.678Z,55.26
2022-08-19T05:05:16.354Z,55.29
2022-08-19T05:07:41.128Z,55.76
2022-08-19T05:10:05.160Z,55.37
2022-08-19T05:12:29.880Z,55.65
2022-08-19T05:14:53.310Z,55.48
2022-08-19T05:17:37.439Z,55.44
2022-08-19T05:20:19.607Z,55.67
2022-08-19T05:22:44.897Z,55.74
2022-08-19T05:25:13.086Z,55.36
2022-08-19T05:27:36.955Z,55.28
2022-08-19T05:30:00.230Z,54.76
2022-08-19T05:32:24.440Z,54.44
2022-08-19T05:34:47.813Z,54.18
2022-08-19T05:37:11.538Z,53.88
2022-08-19T05:39:37.631Z,53.58
2022-08-19T05:42:02.677Z,53.63
2022-08-19T05:44:26.532Z,53.58
2022-08-19T05:46:49.746Z,53.39
2022-08-19T05:49:13.054Z,53.31
2022-08-19T05:51:36.710Z,53.27
2022-08-19T05:54:00.059Z,53.15
2022-08-19T05:56:24.760Z,53.43
2022-08-19T05:58:48.458Z,53.49
2022-08-19T06:01:12.763Z,53.47
2022-08-19T06:03:37.344Z,53.40
2022-08-19T06:06:01.397Z,53.33
2022-08-19T06:08:33.837Z,53.24
2022-08-19T06:10:57.939Z,53.28
2022-08-19T06:13:23.706Z,53.34
2022-08-19T06:15:47.452Z,53.20
2022-08-19T06:18:10.734Z,53.28
2022-08-19T06:20:54.617Z,53.36
2022-08-19T06:23:17.668Z,53.09
2022-08-19T06:25:42.331Z,53.05
2022-08-19T06:28:14.971Z,52.88
2022-08-19T06:30:40.254Z,53.00
2022-08-19T06:33:03.621Z,53.05
2022-08-19T06:35:27.976Z,53.09
2022-08-19T06:37:51.330Z,53.06
2022-08-19T06:40:14.651Z,52.95
2022-08-19T06:42:39.396Z,53.05
2022-08-19T06:45:09.643Z,53.13
2022-08-19T06:47:34.898Z,53.09
2022-08-19T06:50:03.202Z,53.23
2022-08-19T06:52:27.462Z,53.17
2022-08-19T06:54:56.456Z,53.12
2022-08-19T06:57:20.194Z,52.92
2022-08-19T06:59:43.468Z,52.62
2022-08-19T07:02:07.614Z,52.65
2022-08-19T07:04:33.462Z,52.41
2022-08-19T07:06:59.534Z,52.42
2022-08-19T07:09:44.283Z,52.50
2022-08-19T07:12:16.290Z,52.61
2022-08-19T07:14:39.943Z,52.39
2022-08-19T07:17:03.279Z,52.21
2022-08-19T07:19:28.303Z,52.02
2022-08-19T07:21:53.849Z,52.04
2022-08-19T07:24:17.767Z,52.09
2022-08-19T07:26:42.381Z,51.91
2022-08-19T07:29:05.770Z,51.89
2022-08-19T07:31:29.398Z,51.90
2022-08-19T07:33:56.330Z,52.01
2022-08-19T07:36:21.444Z,51.96
2022-08-19T07:38:49.169Z,51.77
2022-08-19T07:41:12.945Z,51.71
2022-08-19T07:43:36.179Z,51.63
2022-08-19T07:45:59.683Z,51.47
2022-08-19T07:48:25.945Z,51.22
2022-08-19T07:50:49.455Z,51.50
2022-08-19T07:53:12.974Z,51.04
2022-08-19T07:55:41.242Z,51.19
2022-08-19T07:58:07.025Z,51.22
2022-08-19T08:00:30.348Z,50.72
2022-08-19T08:02:55.716Z,50.44
2022-08-19T08:05:38.784Z,50.14
2022-08-19T08:08:22.526Z,49.74
2022-08-19T08:10:52.581Z,49.80
2022-08-19T08:13:17.905Z,49.62
2022-08-19T08:15:42.903Z,49.30
2022-08-19T08:18:07.127Z,49.30
2022-08-19T08:20:31.081Z,48.95
2022-08-19T08:23:11.417Z,49.20
2022-08-19T08:25:35.343Z,48.60
2022-08-19T08:28:01.335Z,48.61
2022-08-19T08:30:25.881Z,48.05
2022-08-19T08:32:54.458Z,47.72
2022-08-19T08:35:19.238Z,47.65
2022-08-19T08:37:42.693Z,47.50
2022-08-19T08:40:08.149Z,48.10
2022-08-19T08:42:37.795Z,48.17
2022-08-19T08:45:03.397Z,48.25
2022-08-19T08:47:28.714Z,48.40
2022-08-19T08:49:54.157Z,48.68
2022-08-19T08:52:19.503Z,47.83
2022-08-19T08:54:54.767Z,48.00
2022-08-19T08:57:28.948Z,47.97
2022-08-19T08:59:58.216Z,48.13
2022-08-19T09:02:23.078Z,47.86
2022-08-19T09:04:46.301Z,47.76
2022-08-19T09:07:34.699Z,47.15
2022-08-19T09:10:05.426Z,46.86
2022-08-19T09:12:35.340Z,45.87
2022-08-19T09:14:59.894Z,45.73
2022-08-19T09:17:27.850Z,45.76
2022-08-19T09:19:53.589Z,46.31
2022-08-19T09:22:23.582Z,46.65
2022-08-19T09:24:50.200Z,46.37
2022-08-19T09:27:18.403Z,46.53
2022-08-19T09:29:42.041Z,46.63
2022-08-19T09:32:06.290Z,46.61
2022-08-19T09:34:51.337Z,46.35
2022-08-19T09:37:15.131Z,47.07
2022-08-19T09:39:39.411Z,47.28
2022-08-19T09:42:04.601Z,46.26
2022-08-19T09:44:27.911Z,45.99
2022-08-19T09:46:51.963Z,45.53
2022-08-19T09:49:15.488Z,45.76
2022-08-19T09:51:40.211Z,45.25
2022-08-19T09:54:05.192Z,45.82
2022-08-19T09:56:28.654Z,45.99
2022-08-19T09:58:51.909Z,45.97
2022-08-19T10:01:18.537Z,45.67
2022-08-19T10:03:41.757Z,45.58
2022-08-19T10:06:15.098Z,44.61
2022-08-19T10:08:50.337Z,44.96
2022-08-19T10:11:27.219Z,45.29
2022-08-19T10:13:51.037Z,46.21
2022-08-19T10:16:16.876Z,45.64
2022-08-19T10:18:44.237Z,45.21
2022-08-19T10:21:14.675Z,45.05
2022-08-19T10:23:38.847Z,44.77
2022-08-19T10:26:04.339Z,45.19
2022-08-19T10:28:27.587Z,44.50
2022-08-19T10:30:54.306Z,43.62
2022-08-19T10:33:39.074Z,42.77
2022-08-19T10:36:02.152Z,43.25
2022-08-19T10:38:31.477Z,43.88
2022-08-19T10:40:55.195Z,43.88
2022-08-19T10:43:20.279Z,42.77
2022-08-19T10:45:52.457Z,43.12
2022-08-19T10:48:16.179Z,44.04
2022-08-19T10:51:00.366Z,43.95
2022-08-19T10:53:26.454Z,43.04
2022-08-19T10:56:07.152Z,43.47
2022-08-19T10:58:31.915Z,42.96
2022-08-19T11:00:55.636Z,42.46
2022-08-19T11:03:19.717Z,43.85
2022-08-19T11:05:43.121Z,44.16
2022-08-19T11:08:22.101Z,46.21
2022-08-19T11:10:50.262Z,49.61
2022-08-19T11:13:14.032Z,50.49
2022-08-19T11:15:39.407Z,53.31
2022-08-19T11:18:02.646Z,53.87
2022-08-19T11:20:26.784Z,55.18
2022-08-19T11:22:50.040Z,57.09
2022-08-19T11:25:13.469Z,56.82
2022-08-19T11:27:40.363Z,58.18
2022-08-19T11:30:04.678Z,58.50
2022-08-19T11:32:33.326Z,59.00
2022-08-19T11:34:56.590Z,60.62
2022-08-19T11:37:19.870Z,60.07
2022-08-19T11:39:43.198Z,60.52
2022-08-19T11:42:28.112Z,60.30
2022-08-19T11:44:51.222Z,60.73
2022-08-19T11:47:14.466Z,60.11
2022-08-19T11:49:39.413Z,59.37
2022-08-19T11:52:02.642Z,59.08
2022-08-19T11:54:26.144Z,59.35
2022-08-19T11:56:50.111Z,59.03
2022-08-19T11:59:14.969Z,58.71
2022-08-19T12:01:38.532Z,59.06
2022-08-19T12:04:01.920Z,59.57
2022-08-19T12:06:29.719Z,59.48
2022-08-19T12:08:53.035Z,59.21
2022-08-19T12:11:16.878Z,59.58
2022-08-19T12:13:40.469Z,59.43
2022-08-19T12:16:08.099Z,59.29
2022-08-19T12:18:31.384Z,59.62
2022-08-19T12:20:55.596Z,60.02
2022-08-19T12:23:20.375Z,60.17
2022-08-19T12:25:49.402Z,59.85
2022-08-19T12:28:12.671Z,60.01
2022-08-19T12:30:35.959Z,60.20
2022-08-19T12:32:59.291Z,60.25
2022-08-19T12:35:22.565Z,60.61
2022-08-19T12:37:46.179Z,60.70
2022-08-19T12:40:21.664Z,60.67
2022-08-19T12:42:44.952Z,60.51
2022-08-19T12:45:09.474Z,60.66
2022-08-19T12:47:33.342Z,60.45
2022-08-19T12:49:57.544Z,60.68
2022-08-19T12:52:23.228Z,60.24
2022-08-19T12:54:47.259Z,60.44
2022-08-19T12:57:12.009Z,60.25
2022-08-19T12:59:35.612Z,60.20
2022-08-19T13:01:59.003Z,60.53
2022-08-19T13:04:22.270Z,60.22
2022-08-19T13:06:45.569Z,60.15
2022-08-19T13:09:08.888Z,60.40
2022-08-19T13:11:33.449Z,60.44
2022-08-19T13:13:58.186Z,60.75
2022-08-19T13:16:23.031Z,60.85
2022-08-19T13:18:47.534Z,60.83
2022-08-19T13:21:12.569Z,60.36
2022-08-19T13:23:36.429Z,60.16
2022-08-19T13:25:59.925Z,60.54
2022-08-19T13:28:23.144Z,60.24
2022-08-19T13:31:11.703Z,60.25
2022-08-19T13:33:35.685Z,60.38
2022-08-19T13:36:01.362Z,60.45
2022-08-19T13:38:24.736Z,60.08
2022-08-19T13:40:48.465Z,60.39
2022-08-19T13:43:17.873Z,60.47
2022-08-19T13:45:46.639Z,59.74
2022-08-19T13:48:11.253Z,59.57
2022-08-19T13:50:34.696Z,59.42
2022-08-19T13:52:58.112Z,59.05
2022-08-19T13:55:24.700Z,59.13
2022-08-19T13:57:48.498Z,59.35
2022-08-19T14:00:14.778Z,59.66
2022-08-19T14:02:38.661Z,59.49
2022-08-19T14:05:03.347Z,59.38
2022-08-19T14:07:26.678Z,59.75
2022-08-19T14:09:49.935Z,59.73
2022-08-19T14:12:13.213Z,59.53
2022-08-19T14:14:38.685Z,59.37
2022-08-19T14:17:01.918Z,59.13
2022-08-19T14:19:25.205Z,59.10
2022-08-19T14:21:55.280Z,58.59
2022-08-19T14:24:18.526Z,58.65
2022-08-19T14:26:41.821Z,58.95
2022-08-19T14:29:05.497Z,58.85
2022-08-19T14:31:30.862Z,58.73
2022-08-19T14:33:54.271Z,58.98
2022-08-19T14:36:17.593Z,58.98
2022-08-19T14:38:42.269Z,58.99
2022-08-19T14:41:14.026Z,59.18
2022-08-19T14:43:37.339Z,59.19
2022-08-19T14:46:00.922Z,59.55
2022-08-19T14:48:28.955Z,59.31
2022-08-19T14:50:53.263Z,59.43
2022-08-19T14:53:17.648Z,59.33
2022-08-19T14:55:44.985Z,59.55
2022-08-19T14:58:09.373Z,59.45
2022-08-19T15:00:51.918Z,59.27
2022-08-19T15:03:15.133Z,59.36
2022-08-19T15:05:38.518Z,59.28
2022-08-19T15:08:05.313Z,59.00
2022-08-19T15:10:28.624Z,58.93
2022-08-19T15:12:54.289Z,58.77
2022-08-19T15:15:19.297Z,58.85
2022-08-19T15:17:46.162Z,58.95
2022-08-19T15:20:10.930Z,58.79
2022-08-19T15:22:34.183Z,59.10
2022-08-19T15:24:57.416Z,58.98
2022-08-19T15:27:22.617Z,58.95
2022-08-19T15:29:47.460Z,58.96
2022-08-19T15:32:10.827Z,58.99
2022-08-19T15:34:34.112Z,58.88
2022-08-19T15:36:59.490Z,58.97
2022-08-19T15:39:22.758Z,59.11
2022-08-19T15:41:46.194Z,59.00
2022-08-19T15:44:10.906Z,59.02
2022-08-19T15:46:35.808Z,59.38
2022-08-19T15:49:00.275Z,58.90
2022-08-19T15:51:23.962Z,58.89
2022-08-19T15:53:47.338Z,59.22
2022-08-19T15:56:10.741Z,59.27
2022-08-19T15:58:51.265Z,59.63
2022-08-19T16:01:32.063Z,59.37
2022-08-19T16:04:20.370Z,59.74
2022-08-19T16:06:45.145Z,59.92
2022-08-19T16:09:09.599Z,59.83
2022-08-19T16:11:39.488Z,59.91
2022-08-19T16:14:03.454Z,59.86
2022-08-19T16:16:31.008Z,60.02
2022-08-19T16:18:57.594Z,59.96
2022-08-19T16:21:22.332Z,59.85
2022-08-19T16:23:46.771Z,59.83
2022-08-19T16:26:10.003Z,59.88
2022-08-19T16:28:33.806Z,59.88
2022-08-19T16:30:57.078Z,60.02
2022-08-19T16:33:22.933Z,60.11
2022-08-19T16:35:51.954Z,60.10
2022-08-19T16:38:25.300Z,60.01
2022-08-19T16:40:49.216Z,60.23
2022-08-19T16:43:12.643Z,60.39
2022-08-19T16:45:35.899Z,60.13
2022-08-19T16:47:59.239Z,60.25
2022-08-19T16:50:39.246Z,60.15
2022-08-19T16:53:07.934Z,60.10
2022-08-19T16:55:32.656Z,60.00
2022-08-19T16:57:56.196Z,60.14
2022-08-19T17:00:20.538Z,60.44
2022-08-19T17:02:43.840Z,60.35
2022-08-19T17:05:08.604Z,60.42
2022-08-19T17:07:33.492Z,60.42
2022-08-19T17:09:57.471Z,60.37
2022-08-19T17:12:22.203Z,60.54
2022-08-19T17:14:53.908Z,60.40
2022-08-19T17:17:17.277Z,60.47
2022-08-19T17:19:42.537Z,60.47
2022-08-19T17:22:06.035Z,60.57
2022-08-19T17:24:31.200Z,60.42
2022-08-19T17:26:54.476Z,60.39
2022-08-19T17:29:19.592Z,60.34
2022-08-19T17:31:43.470Z,60.32
2022-08-19T17:34:06.988Z,60.24
2022-08-19T17:36:34.013Z,59.88
2022-08-19T17:38:57.817Z,60.27
2022-08-19T17:41:21.089Z,60.21
2022-08-19T17:43:44.958Z,60.06
2022-08-19T17:46:11.043Z,60.25
2022-08-19T17:48:38.904Z,60.13
2022-08-19T17:51:02.396Z,60.16
2022-08-19T17:53:26.352Z,60.20
2022-08-19T17:55:49.746Z,59.95
2022-08-19T17:58:12.996Z,59.89
2022-08-19T18:00:37.135Z,59.97
2022-08-19T18:03:17.467Z,60.17
2022-08-19T18:05:42.575Z,60.50
2022-08-19T18:08:09.161Z,60.79
2022-08-19T18:10:35.254Z,60.82
2022-08-19T18:12:58.798Z,60.86
2022-08-19T18:15:22.850Z,60.99
2022-08-19T18:17:46.141Z,61.32
2022-08-19T18:20:12.458Z,61.03
2022-08-19T18:22:37.739Z,60.87
2022-08-19T18:25:02.139Z,60.80
2022-08-19T18:27:25.435Z,60.65
2022-08-19T18:29:48.775Z,60.89
2022-08-19T18:32:14.995Z,60.96
2022-08-19T18:34:38.283Z,60.35
2022-08-19T18:37:03.007Z,60.70
2022-08-19T18:39:44.335Z,60.81
2022-08-19T18:42:34.393Z,60.66
2022-08-19T18:45:15.257Z,61.21
2022-08-19T18:47:56.139Z,60.71
2022-08-19T18:50:19.669Z,60.32
2022-08-19T18:52:44.349Z,60.25
2022-08-19T18:55:08.623Z,60.65
2022-08-19T18:57:31.997Z,60.74
2022-08-19T18:59:56.751Z,60.86
2022-08-19T19:02:22.249Z,61.16
2022-08-19T19:04:45.601Z,61.02
2022-08-19T19:07:09.445Z,61.29
2022-08-19T19:09:35.096Z,61.57
2022-08-19T19:11:59.199Z,61.05
2022-08-19T19:14:47.641Z,61.61
2022-08-19T19:17:11.070Z,61.78
2022-08-19T19:19:34.690Z,61.64
2022-08-19T19:21:58.710Z,61.13
2022-08-19T19:24:25.242Z,60.80
2022-08-19T19:26:50.067Z,61.46
2022-08-19T19:29:13.758Z,61.55
2022-08-19T19:31:36.958Z,61.80
2022-08-19T19:34:00.761Z,61.63
2022-08-19T19:36:24.012Z,61.54
2022-08-19T19:38:48.811Z,61.89
2022-08-19T19:41:12.482Z,61.77
2022-08-19T19:43:41.134Z,61.87
2022-08-19T19:46:04.590Z,61.81
2022-08-19T19:48:30.998Z,62.28
2022-08-19T19:50:56.174Z,62.29
2022-08-19T19:53:19.613Z,62.44
2022-08-19T19:55:43.219Z,61.82
2022-08-19T19:58:06.980Z,61.55
2022-08-19T20:00:31.702Z,61.92
2022-08-19T20:02:56.137Z,61.70
2022-08-19T20:05:21.285Z,61.88
2022-08-19T20:08:02.329Z,62.12
2022-08-19T20:10:25.883Z,61.93
2022-08-19T20:12:49.132Z,61.75
2022-08-19T20:15:13.059Z,61.94
2022-08-19T20:17:42.512Z,61.72
2022-08-19T20:20:06.762Z,61.70
2022-08-19T20:22:33.911Z,61.79
2022-08-19T20:24:57.350Z,62.03
2022-08-19T20:27:22.774Z,61.83
2022-08-19T20:29:49.333Z,62.08
2022-08-19T20:32:15.339Z,61.98
2022-08-19T20:34:40.153Z,61.80
2022-08-19T20:37:03.424Z,61.64
2022-08-19T20:39:26.732Z,62.11
2022-08-19T20:41:50.064Z,61.86
2022-08-19T20:44:13.330Z,61.90
2022-08-19T20:46:36.717Z,61.41
2022-08-19T20:49:00.480Z,62.02
2022-08-19T20:51:25.216Z,61.39
2022-08-19T20:53:48.521Z,61.96
2022-08-19T20:56:11.756Z,62.15
2022-08-19T20:58:38.258Z,62.03
2022-08-19T21:01:02.173Z,61.30
2022-08-19T21:03:26.467Z,61.48
2022-08-19T21:05:49.858Z,61.88
2022-08-19T21:08:14.655Z,61.88
2022-08-19T21:10:42.172Z,61.48
2022-08-19T21:13:05.704Z,61.38
2022-08-19T21:15:29.020Z,61.56
2022-08-19T21:17:52.289Z,61.82
2022-08-19T21:20:15.630Z,62.33
2022-08-19T21:22:38.898Z,61.99
2022-08-19T21:25:03.527Z,61.93
2022-08-19T21:27:26.875Z,61.94
2022-08-19T21:29:50.148Z,62.26
2022-08-19T21:32:14.125Z,62.21
2022-08-19T21:34:38.203Z,62.08
2022-08-19T21:37:01.444Z,61.92
2022-08-19T21:39:24.821Z,62.10
2022-08-19T21:41:49.542Z,61.94
2022-08-19T21:44:12.774Z,61.70
2022-08-19T21:46:37.490Z,61.23
2022-08-19T21:49:00.790Z,61.36
2022-08-19T21:51:24.127Z,61.64
2022-08-19T21:53:47.381Z,61.48
2022-08-19T21:56:12.831Z,61.58
2022-08-19T21:58:37.562Z,61.56
2022-08-19T22:01:01.618Z,61.38
2022-08-19T22:03:25.529Z,61.27
2022-08-19T22:05:48.795Z,60.89
2022-08-19T22:08:12.674Z,61.56
2022-08-19T22:10:36.077Z,61.42
2022-08-19T22:12:59.479Z,61.71
2022-08-19T22:15:26.198Z,61.43
2022-08-19T22:17:49.908Z,61.31
2022-08-19T22:20:14.694Z,61.28
2022-08-19T22:22:38.352Z,60.63
2022-08-19T22:25:03.157Z,60.13
2022-08-19T22:27:26.494Z,60.41
2022-08-19T22:29:52.541Z,60.18
2022-08-19T22:32:26.645Z,60.14
2022-08-19T22:34:52.047Z,60.47
2022-08-19T22:37:15.317Z,60.51
2022-08-19T22:39:38.708Z,60.40
2022-08-19T22:42:02.017Z,60.32
2022-08-19T22:44:25.246Z,60.28
2022-08-19T22:46:48.651Z,60.14
2022-08-19T22:49:13.382Z,59.49
2022-08-19T22:51:53.721Z,59.96
2022-08-19T22:54:17.066Z,60.42
2022-08-19T22:56:40.311Z,60.59
2022-08-19T22:59:03.708Z,60.44
2022-08-19T23:01:29.934Z,60.79
2022-08-19T23:03:53.781Z,60.79
2022-08-19T23:06:18.541Z,61.06
2022-08-19T23:08:41.885Z,60.94
2022-08-19T23:11:05.233Z,60.48
2022-08-19T23:13:31.735Z,60.81
2022-08-19T23:15:55.058Z,60.57
2022-08-19T23:18:18.606Z,60.45
2022-08-19T23:20:43.319Z,60.24
2022-08-19T23:23:08.637Z,59.58
2022-08-19T23:25:32.777Z,59.20
2022-08-19T23:28:13.195Z,59.11
2022-08-19T23:30:39.429Z,59.83
2022-08-19T23:33:07.716Z,59.31
2022-08-19T23:35:35.321Z,59.80
2022-08-19T23:37:58.328Z,59.91
2022-08-19T23:40:23.086Z,60.23
2022-08-19T23:42:46.630Z,60.57
2022-08-19T23:45:10.986Z,60.72
2022-08-19T23:47:35.735Z,60.74
2022-08-19T23:49:59.131Z,60.90
2022-08-19T23:52:22.474Z,60.54
2022-08-19T23:54:45.736Z,60.84
2022-08-19T23:57:13.792Z,60.95
2022-08-19T23:59:38.090Z,61.12
